Latest Weather Observations for Groote Eylandt Airport

IDD60801

Issued at 9:31 pm CST Tuesday 28 February 2017 (issued every 30 minutes, with the page automatically refreshed every 10 minutes)

About weather observations | Map of weather stations | Latest weather observations for NT | Other Formats
Station Details ID: 014518 Name: GROOTE EYLANDT AIRPORT Lat: -13.97 Lon: 136.46 Height: 13.7 m
Data from the previous 72 hours. | See also: Recent months at Groote Eylandt Airport
Date/Time
CST
Temp
°C
App
Temp
°C
Dew
Point
°C
Rel
Hum
%
Delta-T
°C
Wind Press
QNH
hPa
Press
MSL
hPa
Rain since
9am
mm
Dir  Spd
km/h
Gust
km/h
Spd
kts
Gust
kts
28/09:30pm 26.2 31.9 23.7 86 1.7 CALM 0 0 0 0 1009.1 1009.0 0.0
28/09:00pm 26.6 32.0 23.3 82 2.3 CALM 0 0 0 0 1008.8 1008.7 0.0
28/08:30pm 27.5 32.3 23.5 79 2.7 ESE 4 6 2 3 1008.7 1008.6 0.0
28/08:00pm 28.1 32.3 23.5 76 3.2 ESE 7 9 4 5 1008.4 1008.3 0.0
28/07:30pm 28.4 32.6 23.1 73 3.6 ESE 6 7 3 4 1008.0 1007.9 0.0
28/07:00pm 29.2 32.9 23.2 70 4.1 ESE 9 11 5 6 1007.6 1007.5 0.0
28/06:30pm 30.0 33.4 22.7 65 5.0 E 9 13 5 7 1007.2 1007.1 0.0
28/06:00pm 30.7 33.1 22.3 61 5.7 ESE 13 20 7 11 1007.0 1006.9 0.0
28/05:30pm 31.4 33.0 22.1 57 6.3 E 17 22 9 12 1006.7 1006.6 0.0
28/05:00pm 32.2 33.7 22.0 55 6.9 ESE 17 28 9 15 1006.5 1006.4 0.0
28/04:30pm 31.8 32.8 22.2 56 6.6 E 20 32 11 17 1006.5 1006.4 0.0
28/04:00pm 32.4 33.4 22.2 55 7.0 E 20 28 11 15 1006.7 1006.6 0.0
28/03:30pm 32.7 34.1 22.5 55 7.0 E 19 26 10 14 1006.8 1006.7 0.0
28/03:00pm 33.2 33.9 22.3 52 7.5 E 22 32 12 17 1006.9 1006.8 0.0
28/02:30pm 33.0 34.3 22.4 53 7.3 E 19 32 10 17 1007.1 1007.0 0.0
28/02:00pm 33.1 33.9 22.5 53 7.3 E 22 33 12 18 1007.2 1007.1 0.0
28/01:30pm 33.0 34.5 22.7 54 7.1 E 19 28 10 15 1007.5 1007.4 0.0
28/01:00pm 32.9 34.0 22.4 54 7.2 E 20 33 11 18 1007.8 1007.7 0.0
28/12:30pm 33.0 33.8 21.8 51 7.6 E 20 28 11 15 1008.3 1008.2 0.0
28/12:00pm 32.9 34.0 23.0 56 6.8 E 22 33 12 18 1008.6 1008.5 0.0
28/11:30am 32.3 32.3 22.4 56 6.8 E 26 39 14 21 1008.9 1008.8 0.0
28/11:00am 32.4 33.2 22.5 56 6.8 E 22 33 12 18 1009.0 1008.9 0.0
28/10:30am 32.1 31.8 21.9 54 6.9 ENE 26 39 14 21 1009.1 1009.0 0.0
28/10:00am 32.0 31.9 21.5 53 7.1 ENE 24 33 13 18 1009.1 1009.0 0.0
28/09:30am 31.2 32.9 23.0 61 5.6 ESE 19 28 10 15 1009.2 1009.1 0.0
28/09:00am 30.6 33.4 24.3 69 4.4 E 17 22 9 12 1009.0 1008.9 0.0
28/08:30am 29.6 33.0 24.7 75 3.4 E 15 26 8 14 1008.9 1008.8 0.0
28/08:00am 27.9 33.0 24.9 84 2.1 ESE 7 9 4 5 1008.7 1008.6 0.0
28/07:30am 25.4 30.0 23.8 91 1.1 ESE 6 7 3 4 1008.6 1008.5 0.0
28/07:00am 24.1 28.5 23.4 96 0.5 E 6 7 3 4 1008.6 1008.5 0.0
28/06:30am 23.6 28.8 22.9 96 0.5 CALM 0 2 0 1 1008.8 1008.7 0.0
28/06:00am 23.5 28.7 22.8 96 0.5 CALM 0 0 0 0 1008.5 1008.4 0.0
28/05:30am 23.6 28.8 22.9 96 0.5 CALM 0 0 0 0 1008.0 1007.9 0.0
28/05:00am 23.6 28.4 22.9 96 0.5 ESE 2 7 1 4 1008.1 1008.0 0.0
28/04:30am 23.8 29.1 23.0 95 0.5 CALM 0 0 0 0 1008.0 1007.9 0.0
28/04:00am 23.9 29.3 23.2 96 0.5 CALM 0 0 0 0 1007.8 1007.7 0.0
28/03:30am 23.8 29.1 23.1 96 0.5 CALM 0 0 0 0 1007.9 1007.8 0.0
28/03:00am 24.0 29.3 23.1 95 0.6 CALM 0 0 0 0 1008.0 1007.9 0.0
28/02:30am 24.2 29.6 23.3 95 0.6 CALM 0 0 0 0 1008.3 1008.2 0.0
28/02:00am 24.4 30.0 23.5 95 0.6 CALM 0 0 0 0 1008.6 1008.5 0.0
28/01:30am 24.7 30.4 23.7 94 0.7 CALM 0 0 0 0 1008.7 1008.6 0.0
28/01:00am 24.9 30.7 23.9 94 0.7 CALM 0 0 0 0 1009.0 1008.9 0.0
28/12:30am 25.0 30.7 23.8 93 0.8 CALM 0 0 0 0 1009.3 1009.2 0.0
28/12:00am 25.1 30.9 23.9 93 0.8 CALM 0 0 0 0 1009.6 1009.5 0.0
 
Date/Time
CST
Temp
°C
App
Temp
°C
Dew
Point
°C
Rel
Hum
%
Delta-T
°C
Wind Press
QNH
hPa
Press
MSL
hPa
Rain since
9am
mm
Dir  Spd
km/h
Gust
km/h
Spd
kts
Gust
kts
27/11:30pm 25.4 31.2 24.0 92 1.0 CALM 0 0 0 0 1010.0 1009.9 0.0
27/11:00pm 25.3 31.1 23.9 92 1.0 CALM 0 0 0 0 1010.0 1009.9 0.0
27/10:30pm 25.4 31.1 23.8 91 1.1 CALM 0 0 0 0 1009.9 1009.8 0.0
27/10:00pm 25.7 31.4 23.7 89 1.4 CALM 0 0 0 0 1009.6 1009.5 0.0
27/09:30pm 26.0 31.8 23.9 88 1.4 CALM 0 0 0 0 1009.4 1009.3 0.0
27/09:00pm 26.3 32.0 23.8 86 1.7 CALM 0 0 0 0 1009.0 1008.9 0.0
27/08:30pm 27.1 32.7 23.6 81 2.4 CALM 0 0 0 0 1008.6 1008.5 0.0
27/08:00pm 27.6 31.8 23.4 78 2.9 ESE 7 9 4 5 1008.2 1008.1 0.0
27/07:30pm 28.3 32.5 23.4 75 3.4 ESE 7 11 4 6 1008.1 1008.0 0.0
27/07:00pm 29.1 33.1 23.1 70 4.1 E 7 11 4 6 1007.6 1007.5 0.0
27/06:30pm 30.2 33.2 22.6 63 5.2 ENE 11 17 6 9 1007.3 1007.2 0.0
27/06:00pm 31.0 34.6 22.3 60 5.9 SE 7 15 4 8 1007.1 1007.0 0.0
27/05:30pm 31.3 34.0 22.9 61 5.8 E 13 20 7 11 1006.8 1006.7 0.0
27/05:00pm 31.0 33.9 23.1 63 5.4 NE 13 19 7 10 1006.7 1006.6 0.0
27/04:30pm 31.0 33.5 23.1 63 5.4 ENE 15 20 8 11 1006.8 1006.7 0.0
27/04:00pm 30.0 34.0 24.4 72 3.9 NNE 11 13 6 7 1006.7 1006.6 0.0
27/03:30pm 29.6 34.7 24.9 76 3.3 SE 7 11 4 6 1006.8 1006.7 0.0
27/03:00pm 28.3 32.7 24.5 80 2.6 S 9 15 5 8 1006.9 1006.8 0.0
27/02:30pm 29.0 32.9 24.3 76 3.3 S 11 19 6 10 1007.1 1007.0 0.0
27/02:00pm 30.9 35.0 24.5 68 4.5 W 11 15 6 8 1007.2 1007.1 0.0
27/01:30pm 31.2 34.9 25.1 70 4.3 WNW 15 20 8 11 1007.5 1007.4 0.0
27/01:00pm 30.2 33.9 24.6 72 3.9 W 13 19 7 10 1008.3 1008.2 0.0
27/12:30pm 31.4 35.3 24.3 66 5.0 NE 11 17 6 9 1008.5 1008.4 0.0
27/12:00pm 31.5 34.4 23.1 61 5.8 ESE 13 20 7 11 1008.7 1008.6 0.0
27/11:30am 31.3 35.3 23.7 64 5.3 ESE 9 13 5 7 1009.1 1009.0 0.0
27/11:00am 31.5 33.8 22.8 60 6.0 ENE 15 20 8 11 1009.4 1009.3 0.0
27/10:30am 30.9 35.3 25.0 71 4.2 E 11 15 6 8 1009.6 1009.5 0.0
27/10:00am 30.1 34.4 24.9 73 3.7 ENE 11 15 6 8 1009.8 1009.7 0.0
27/09:30am 30.8 34.7 25.4 73 3.8 E 15 20 8 11 1009.8 1009.7 0.0
27/09:00am 29.8 34.1 24.9 75 3.4 ESE 11 17 6 9 1009.6 1009.5 0.0
27/08:30am 29.0 33.9 25.2 80 2.7 SE 9 11 5 6 1009.7 1009.6 0.0
27/08:00am 27.9 34.8 25.7 88 1.6 CALM 0 7 0 4 1009.3 1009.2 0.0
27/07:30am 25.9 31.7 24.5 92 1.0 ESE 2 6 1 3 1008.9 1008.8 0.0
27/07:00am 24.9 30.6 24.4 97 0.3 SE 2 6 1 3 1008.5 1008.4 0.0
27/06:30am 24.4 29.1 23.9 97 0.3 ESE 6 7 3 4 1008.4 1008.3 0.0
27/06:00am 24.2 29.8 23.5 96 0.5 CALM 0 0 0 0 1008.3 1008.2 0.0
27/05:30am 24.4 29.7 23.7 96 0.5 E 2 7 1 4 1008.2 1008.1 0.0
27/05:00am 24.6 29.6 23.9 96 0.5 E 4 7 2 4 1008.0 1007.9 0.0
27/04:30am 24.6 30.4 23.9 96 0.5 CALM 0 0 0 0 1007.9 1007.8 0.0
27/04:00am 24.7 29.8 24.0 96 0.5 ESE 4 9 2 5 1008.1 1008.0 0.0
27/03:30am 24.8 29.6 24.1 96 0.5 ESE 6 7 3 4 1008.1 1008.0 0.0
27/03:00am 24.7 30.5 24.0 96 0.5 CALM 0 0 0 0 1008.2 1008.1 0.0
27/02:30am 24.9 30.9 24.2 96 0.5 CALM 0 0 0 0 1008.4 1008.3 0.0
27/02:00am 25.0 30.9 24.1 95 0.6 CALM 0 0 0 0 1008.5 1008.4 0.0
27/01:30am 25.1 30.3 24.2 95 0.6 SE 4 6 2 3 1008.7 1008.6 0.0
27/01:00am 25.2 30.8 24.3 95 0.6 ESE 2 6 1 3 1008.8 1008.7 0.0
27/12:30am 25.2 30.1 24.3 95 0.6 SSE 6 9 3 5 1008.9 1008.8 0.0
27/12:00am 25.2 31.2 24.2 94 0.7 CALM 0 0 0 0 1009.2 1009.1 0.0
 
Date/Time
CST
Temp
°C
App
Temp
°C
Dew
Point
°C
Rel
Hum
%
Delta-T
°C
Wind Press
QNH
hPa
Press
MSL
hPa
Rain since
9am
mm
Dir  Spd
km/h
Gust
km/h
Spd
kts
Gust
kts
26/11:30pm 25.6 31.8 24.6 94 0.7 CALM 0 0 0 0 1009.4 1009.3 0.0
26/11:00pm 25.6 31.8 24.6 94 0.7 CALM 0 0 0 0 1009.4 1009.3 0.0
26/10:30pm 25.9 32.2 24.7 93 0.8 CALM 0 0 0 0 1009.3 1009.2 0.0
26/10:00pm 25.9 32.2 24.7 93 0.8 CALM 0 0 0 0 1009.0 1008.9 0.0
26/09:30pm 26.1 32.5 24.9 93 0.8 CALM 0 0 0 0 1008.8 1008.7 0.0
26/09:00pm 26.3 32.6 24.7 91 1.1 CALM 0 0 0 0 1008.6 1008.5 0.0
26/08:30pm 26.3 32.4 24.5 90 1.2 CALM 0 0 0 0 1008.3 1008.2 0.0
26/08:00pm 26.5 32.5 24.3 88 1.5 CALM 0 0 0 0 1007.9 1007.8 0.0
26/07:30pm 27.0 31.9 24.3 85 1.9 SE 6 7 3 4 1007.7 1007.6 0.0
26/07:00pm 27.7 32.2 23.9 80 2.6 SE 7 13 4 7 1007.4 1007.3 0.0
26/06:30pm 28.0 32.6 24.2 80 2.6 SE 7 11 4 6 1007.2 1007.1 0.0
26/06:00pm 28.1 32.3 24.1 79 2.8 SE 9 13 5 7 1006.8 1006.7 0.0
26/05:30pm 27.5 31.7 24.1 82 2.4 SE 9 13 5 7 1006.3 1006.2 0.0
26/05:00pm 29.1 34.7 25.7 82 2.4 SE 7 13 4 7 1006.4 1006.3 0.0
26/04:30pm 26.9 31.5 24.2 85 1.9 SE 7 11 4 6 1006.4 1006.3 0.0
26/04:00pm 26.6 29.6 22.7 79 2.6 S 11 19 6 10 1006.5 1006.4 0.0
26/03:30pm 30.7 34.6 24.8 71 4.2 ESE 13 26 7 14 1005.9 1005.8 0.0
26/03:00pm 31.4 35.2 24.0 65 5.2 SE 11 17 6 9 1006.0 1005.9 0.0
26/02:30pm 31.3 34.2 23.9 64 5.2 ESE 15 24 8 13 1006.1 1006.0 0.0
26/02:00pm 31.0 33.2 22.6 61 5.7 SE 15 22 8 12 1006.1 1006.0 0.0
26/01:30pm 29.8 32.2 23.0 67 4.7 SSE 15 26 8 14 1006.3 1006.2 0.0
26/01:00pm 31.8 36.3 25.2 68 4.7 WSW 11 19 6 10 1006.4 1006.3 0.0
26/12:30pm 31.2 35.1 24.8 69 4.5 W 13 19 7 10 1007.1 1007.0 0.0
26/12:00pm 32.8 36.7 24.3 61 6.0 ENE 11 19 6 10 1007.5 1007.4 0.0
26/11:30am 32.0 37.2 25.1 67 4.9 NE 7 13 4 7 1008.0 1007.9 0.0
26/11:00am 31.9 36.0 24.0 63 5.5 E 9 17 5 9 1008.4 1008.3 0.0
26/10:30am 30.7 35.1 24.4 69 4.4 SSE 9 13 5 7 1008.8 1008.7 0.0
26/10:00am 30.5 34.6 23.9 68 4.6 ESE 9 17 5 9 1008.9 1008.8 0.0
26/09:30am 30.0 34.5 24.6 73 3.8 SE 9 13 5 7 1008.9 1008.8 0.0
26/09:00am 30.0 35.4 26.0 79 2.8 SSE 9 15 5 8 1008.9 1008.8 0.0
26/08:30am 29.0 35.0 26.4 86 1.9 ESE 7 11 4 6 1008.9 1008.8 0.0
26/08:00am 27.0 33.1 25.6 92 1.0 ENE 4 6 2 3 1008.6 1008.5 0.0
26/07:30am 25.8 31.2 25.1 96 0.5 ENE 6 6 3 3 1008.2 1008.1 0.0
26/07:00am 24.9 30.9 24.2 96 0.5 CALM 0 0 0 0 1007.9 1007.8 0.0
26/06:30am 24.5 30.2 23.8 96 0.5 CALM 0 0 0 0 1007.5 1007.4 0.0
26/06:00am 24.7 30.5 24.0 96 0.5 CALM 0 0 0 0 1007.2 1007.1 0.0
26/05:30am 24.7 30.2 24.0 96 0.5 E 2 6 1 3 1007.0 1006.9 0.0
26/05:00am 24.6 30.4 23.9 96 0.5 CALM 0 6 0 3 1007.0 1006.9 0.0
26/04:30am 24.7 29.4 24.0 96 0.5 E 6 7 3 4 1006.7 1006.6 0.0
26/04:00am 24.6 30.3 23.7 95 0.6 CALM 0 0 0 0 1006.6 1006.5 0.0
26/03:30am 24.7 30.4 23.8 95 0.6 CALM 0 0 0 0 1006.6 1006.5 0.0
26/03:00am 25.0 30.9 24.1 95 0.6 CALM 0 0 0 0 1007.1 1007.0 0.0
26/02:30am 25.2 31.3 24.5 96 0.5 CALM 0 0 0 0 1007.3 1007.2 0.0
26/02:00am 25.3 31.4 24.4 95 0.6 CALM 0 0 0 0 1007.6 1007.5 0.0
26/01:30am 25.3 31.3 24.3 94 0.7 CALM 0 0 0 0 1008.2 1008.1 0.0
26/01:00am 25.4 31.1 24.4 94 0.7 E 2 6 1 3 1008.7 1008.6 0.0
26/12:30am 25.7 31.2 24.7 94 0.7 E 4 6 2 3 1009.1 1009.0 0.0
26/12:00am 26.0 32.3 24.8 93 0.8 CALM 0 0 0 0 1009.5 1009.4 0.0
 
Date/Time
CST
Temp
°C
App
Temp
°C
Dew
Point
°C
Rel
Hum
%
Delta-T
°C
Wind Press
QNH
hPa
Press
MSL
hPa
Rain since
9am
mm
Dir  Spd
km/h
Gust
km/h
Spd
kts
Gust
kts
25/11:30pm 26.0 32.3 24.8 93 0.8 CALM 0 4 0 2 1009.4 1009.3 0.0
25/11:00pm 26.3 31.7 25.1 93 0.8 ENE 6 6 3 3 1009.2 1009.1 0.0
25/10:30pm 26.5 32.9 24.9 91 1.1 CALM 0 0 0 0 1009.5 1009.4 0.0
25/10:00pm 26.7 33.1 24.9 90 1.3 CALM 0 0 0 0 1009.8 1009.7 0.0

Other Formats:

Comma delimited format used in spreadsheet applications
http://www.bom.gov.au/fwo/IDD60801/IDD60801.94153.axf

JavaScript Object Notation format (JSON) in row-major order
http://www.bom.gov.au/fwo/IDD60801/IDD60801.94153.json